Pagrindinis puslapis
METAR-TAF:

METAR-TAF

Oro uostai :

Kalmaras, Švedija

platuma: 56-44N, ilguma: 016-18E, Aukštis: 16 m

Dabartinis oras

Ataskaita buvo paskelbta 26 minutes, ne 03:20 UTC
Vėjas 6 kt iš Šiaurės/Šiaurės Vakarų
Temperatūra 1°C
Drėgmė 100%
Slėgis 1007 hPa
Matomumas 10 km arba daugiau

METAR: ESMQ 190320Z AUTO 34006KT 9999 BKN002/// OVC005/// 01/01 Q1007

Laikas: 05:46 (03:46 UTC)

Prognozė

Ataskaita buvo paskelbta 16 minutes, ne 03:30 UTC
Prognozė galioja nuo 19 metu 04 UTC su 19 metu 12 UTC
Vėjas 6 kt iš Šiaurės
Matomumas 10 km arba daugiau
Apsiniaukę ne aukštis 200 ft
Tikimybė 40%
nuo 19 metu 04 UTC su 19 metu 06 UTC
Apsiniaukę ne aukštis 500 ft
Tapsmas
nuo 19 metu 06 UTC su 19 metu 08 UTC
Su prošvaistėmis ne aukštis 2000 ft

TAF: ESMQ 190330Z 1904/1912 36006KT 9999 OVC002 PROB40 1904/1906 OVC005 BECMG 1906/1908 BKN020

Orai ataskaitas ir orų prognozės (METAR, TAF).

turimą stotys yra geltonos ir raudonos taškus žemėlapyje.

Perkelti pele per norėdami pamatyti stoties vardą.

Tada spustelėkite, norėdami matyti oro stebėjimo ir prognozės.

Norėdami pakeisti žemėlapį: spustelėkite ant žalios mygtukų su juodo kryžiaus žemyn,; žalią mygtuką su brūkšneliu, jei norite nutolinti; arba žalių rodyklių gretimoms žemėlapius.


METAR-TAF: